sensor_id;sensor_type;location;lat;lon;timestamp;temperature;humidity
30037;DHT22;36325;51.512;-0.382;2023-06-24T00:00:40;19.20;99.90
30037;DHT22;36325;51.512;-0.382;2023-06-24T00:03:07;19.10;99.90
30037;DHT22;36325;51.512;-0.382;2023-06-24T00:05:35;19.10;99.90
30037;DHT22;36325;51.512;-0.382;2023-06-24T00:08:02;19.10;99.90
30037;DHT22;36325;51.512;-0.382;2023-06-24T00:10:30;19.10;99.90
30037;DHT22;36325;51.512;-0.382;2023-06-24T00:12:57;19.10;99.90
30037;DHT22;36325;51.512;-0.382;2023-06-24T00:15:28;19.10;99.90
30037;DHT22;36325;51.512;-0.382;2023-06-24T00:17:55;19.10;99.90
30037;DHT22;36325;51.512;-0.382;2023-06-24T00:20:32;19.00;99.90
30037;DHT22;36325;51.512;-0.382;2023-06-24T00:23:00;19.00;99.90
30037;DHT22;36325;51.512;-0.382;2023-06-24T00:25:28;18.90;99.90
30037;DHT22;36325;51.512;-0.382;2023-06-24T00:27:55;18.90;99.90
30037;DHT22;36325;51.512;-0.382;2023-06-24T00:30:22;18.90;99.90
30037;DHT22;36325;51.512;-0.382;2023-06-24T00:32:50;18.90;99.90
30037;DHT22;36325;51.512;-0.382;2023-06-24T00:35:17;18.80;99.90
30037;DHT22;36325;51.512;-0.382;2023-06-24T00:40:41;18.80;99.90
30037;DHT22;36325;51.512;-0.382;2023-06-24T00:43:09;18.80;99.90
30037;DHT22;36325;51.512;-0.382;2023-06-24T00:45:37;18.70;99.90
30037;DHT22;36325;51.512;-0.382;2023-06-24T00:48:05;18.70;99.90
30037;DHT22;36325;51.512;-0.382;2023-06-24T00:50:33;18.60;99.90
30037;DHT22;36325;51.512;-0.382;2023-06-24T00:53:02;18.70;99.90
30037;DHT22;36325;51.512;-0.382;2023-06-24T00:55:29;18.60;99.90
30037;DHT22;36325;51.512;-0.382;2023-06-24T00:57:57;18.60;99.90
30037;DHT22;36325;51.512;-0.382;2023-06-24T01:02:55;18.60;99.90
30037;DHT22;36325;51.512;-0.382;2023-06-24T01:05:26;18.50;99.90
30037;DHT22;36325;51.512;-0.382;2023-06-24T01:07:56;18.50;99.90
30037;DHT22;36325;51.512;-0.382;2023-06-24T01:10:24;18.50;99.90
30037;DHT22;36325;51.512;-0.382;2023-06-24T01:12:52;18.40;99.90
30037;DHT22;36325;51.512;-0.382;2023-06-24T01:15:19;18.40;99.90
30037;DHT22;36325;51.512;-0.382;2023-06-24T01:17:52;18.40;99.90
30037;DHT22;36325;51.512;-0.382;2023-06-24T01:24:00;18.30;99.90
30037;DHT22;36325;51.512;-0.382;2023-06-24T01:27:02;18.30;99.90
30037;DHT22;36325;51.512;-0.382;2023-06-24T01:30:09;18.30;99.90
30037;DHT22;36325;51.512;-0.382;2023-06-24T01:32:54;18.30;99.90
30037;DHT22;36325;51.512;-0.382;2023-06-24T01:35:28;18.20;99.90
30037;DHT22;36325;51.512;-0.382;2023-06-24T01:38:03;18.20;99.90
30037;DHT22;36325;51.512;-0.382;2023-06-24T01:40:38;16.60;99.90
30037;DHT22;36325;51.512;-0.382;2023-06-24T01:43:08;18.00;99.90
30037;DHT22;36325;51.512;-0.382;2023-06-24T01:45:41;18.10;99.90
30037;DHT22;36325;51.512;-0.382;2023-06-24T01:48:15;18.10;99.90
30037;DHT22;36325;51.512;-0.382;2023-06-24T01:50:55;18.00;99.90
30037;DHT22;36325;51.512;-0.382;2023-06-24T01:53:24;18.00;99.90
30037;DHT22;36325;51.512;-0.382;2023-06-24T01:55:58;18.00;99.90
30037;DHT22;36325;51.512;-0.382;2023-06-24T01:58:26;17.90;99.90
30037;DHT22;36325;51.512;-0.382;2023-06-24T02:00:54;17.90;99.90
30037;DHT22;36325;51.512;-0.382;2023-06-24T02:03:22;17.90;99.90
30037;DHT22;36325;51.512;-0.382;2023-06-24T02:05:52;17.80;99.90
30037;DHT22;36325;51.512;-0.382;2023-06-24T02:08:21;18.80;99.90
30037;DHT22;36325;51.512;-0.382;2023-06-24T02:10:50;17.80;99.90
30037;DHT22;36325;51.512;-0.382;2023-06-24T02:13:19;17.80;99.90
30037;DHT22;36325;51.512;-0.382;2023-06-24T02:15:47;17.80;99.90
30037;DHT22;36325;51.512;-0.382;2023-06-24T02:18:16;17.70;99.90
30037;DHT22;36325;51.512;-0.382;2023-06-24T02:20:44;17.70;99.90
30037;DHT22;36325;51.512;-0.382;2023-06-24T02:23:13;17.70;99.90
30037;DHT22;36325;51.512;-0.382;2023-06-24T02:25:42;17.70;99.90
30037;DHT22;36325;51.512;-0.382;2023-06-24T02:28:09;17.60;99.90
30037;DHT22;36325;51.512;-0.382;2023-06-24T02:30:38;17.60;99.90
30037;DHT22;36325;51.512;-0.382;2023-06-24T02:33:07;17.60;99.90
30037;DHT22;36325;51.512;-0.382;2023-06-24T02:35:34;17.60;99.90
30037;DHT22;36325;51.512;-0.382;2023-06-24T02:38:02;17.50;99.90
30037;DHT22;36325;51.512;-0.382;2023-06-24T02:40:30;17.50;99.90
30037;DHT22;36325;51.512;-0.382;2023-06-24T02:43:00;17.50;99.90
30037;DHT22;36325;51.512;-0.382;2023-06-24T02:45:30;17.50;99.90
30037;DHT22;36325;51.512;-0.382;2023-06-24T02:47:59;17.40;99.90
30037;DHT22;36325;51.512;-0.382;2023-06-24T02:50:28;17.40;99.90
30037;DHT22;36325;51.512;-0.382;2023-06-24T02:52:56;17.40;99.90
30037;DHT22;36325;51.512;-0.382;2023-06-24T02:55:32;17.30;99.90
30037;DHT22;36325;51.512;-0.382;2023-06-24T02:58:04;17.30;99.90
30037;DHT22;36325;51.512;-0.382;2023-06-24T03:03:41;17.30;99.90
30037;DHT22;36325;51.512;-0.382;2023-06-24T03:06:12;17.20;99.90
30037;DHT22;36325;51.512;-0.382;2023-06-24T03:11:11;17.20;99.90
30037;DHT22;36325;51.512;-0.382;2023-06-24T03:13:39;17.20;99.90
30037;DHT22;36325;51.512;-0.382;2023-06-24T03:16:35;17.20;99.90
30037;DHT22;36325;51.512;-0.382;2023-06-24T03:19:15;17.20;99.90
30037;DHT22;36325;51.512;-0.382;2023-06-24T03:29:16;17.10;99.90
30037;DHT22;36325;51.512;-0.382;2023-06-24T03:32:12;17.10;99.90
30037;DHT22;36325;51.512;-0.382;2023-06-24T03:34:41;17.10;99.90
30037;DHT22;36325;51.512;-0.382;2023-06-24T03:37:10;17.10;99.90
30037;DHT22;36325;51.512;-0.382;2023-06-24T03:39:40;17.10;99.90
30037;DHT22;36325;51.512;-0.382;2023-06-24T03:42:08;17.00;99.90
30037;DHT22;36325;51.512;-0.382;2023-06-24T03:44:35;17.00;99.90
30037;DHT22;36325;51.512;-0.382;2023-06-24T03:47:03;17.00;99.90
30037;DHT22;36325;51.512;-0.382;2023-06-24T03:49:30;17.00;99.90
30037;DHT22;36325;51.512;-0.382;2023-06-24T03:51:59;16.90;99.90
30037;DHT22;36325;51.512;-0.382;2023-06-24T03:54:26;16.90;99.90
30037;DHT22;36325;51.512;-0.382;2023-06-24T03:56:54;16.90;99.90
30037;DHT22;36325;51.512;-0.382;2023-06-24T03:59:21;16.90;99.90
30037;DHT22;36325;51.512;-0.382;2023-06-24T04:01:52;16.90;99.90
30037;DHT22;36325;51.512;-0.382;2023-06-24T04:04:21;16.90;99.90
30037;DHT22;36325;51.512;-0.382;2023-06-24T04:06:50;16.90;99.90
30037;DHT22;36325;51.512;-0.382;2023-06-24T04:09:17;16.90;99.90
30037;DHT22;36325;51.512;-0.382;2023-06-24T04:11:44;16.90;99.90
30037;DHT22;36325;51.512;-0.382;2023-06-24T04:14:12;16.90;99.90
30037;DHT22;36325;51.512;-0.382;2023-06-24T04:16:39;16.70;99.90
30037;DHT22;36325;51.512;-0.382;2023-06-24T04:19:07;16.90;99.90
30037;DHT22;36325;51.512;-0.382;2023-06-24T04:24:02;16.20;99.90
30037;DHT22;36325;51.512;-0.382;2023-06-24T04:26:30;16.90;99.90
30037;DHT22;36325;51.512;-0.382;2023-06-24T04:28:57;16.90;99.90
30037;DHT22;36325;51.512;-0.382;2023-06-24T04:31:25;16.90;99.90
30037;DHT22;36325;51.512;-0.382;2023-06-24T04:33:53;16.90;99.90
30037;DHT22;36325;51.512;-0.382;2023-06-24T04:36:20;17.00;99.90
30037;DHT22;36325;51.512;-0.382;2023-06-24T04:38:47;17.00;99.90
30037;DHT22;36325;51.512;-0.382;2023-06-24T04:41:14;17.00;99.90
30037;DHT22;36325;51.512;-0.382;2023-06-24T04:43:42;17.00;99.90
30037;DHT22;36325;51.512;-0.382;2023-06-24T04:46:09;17.00;99.90
30037;DHT22;36325;51.512;-0.382;2023-06-24T04:48:37;17.00;99.90
30037;DHT22;36325;51.512;-0.382;2023-06-24T04:51:04;17.10;99.90
30037;DHT22;36325;51.512;-0.382;2023-06-24T04:53:31;17.10;99.90
30037;DHT22;36325;51.512;-0.382;2023-06-24T04:55:58;17.10;99.90
30037;DHT22;36325;51.512;-0.382;2023-06-24T04:58:26;17.20;99.90
30037;DHT22;36325;51.512;-0.382;2023-06-24T05:00:53;17.20;99.90
30037;DHT22;36325;51.512;-0.382;2023-06-24T05:03:20;17.40;99.90
30037;DHT22;36325;51.512;-0.382;2023-06-24T05:10:43;17.60;99.90
30037;DHT22;36325;51.512;-0.382;2023-06-24T05:13:11;17.70;99.90
30037;DHT22;36325;51.512;-0.382;2023-06-24T05:15:38;17.80;99.90
30037;DHT22;36325;51.512;-0.382;2023-06-24T05:20:33;18.00;99.90
30037;DHT22;36325;51.512;-0.382;2023-06-24T05:23:00;18.00;99.90
30037;DHT22;36325;51.512;-0.382;2023-06-24T05:25:28;18.00;99.90
30037;DHT22;36325;51.512;-0.382;2023-06-24T05:27:55;18.10;99.90
30037;DHT22;36325;51.512;-0.382;2023-06-24T05:30:22;18.10;99.90
30037;DHT22;36325;51.512;-0.382;2023-06-24T05:32:50;18.20;99.90
30037;DHT22;36325;51.512;-0.382;2023-06-24T05:35:17;18.20;99.90
30037;DHT22;36325;51.512;-0.382;2023-06-24T05:37:44;18.30;99.90
30037;DHT22;36325;51.512;-0.382;2023-06-24T05:40:11;18.30;99.90
30037;DHT22;36325;51.512;-0.382;2023-06-24T05:42:39;18.40;99.90
30037;DHT22;36325;51.512;-0.382;2023-06-24T05:47:34;18.40;99.90
30037;DHT22;36325;51.512;-0.382;2023-06-24T05:50:02;18.50;99.90
30037;DHT22;36325;51.512;-0.382;2023-06-24T05:52:29;18.50;99.90
30037;DHT22;36325;51.512;-0.382;2023-06-24T05:54:56;18.60;99.90
30037;DHT22;36325;51.512;-0.382;2023-06-24T05:57:23;18.60;99.90
30037;DHT22;36325;51.512;-0.382;2023-06-24T05:59:51;18.70;99.90
30037;DHT22;36325;51.512;-0.382;2023-06-24T06:02:18;18.80;99.90
30037;DHT22;36325;51.512;-0.382;2023-06-24T06:04:46;18.80;99.90
30037;DHT22;36325;51.512;-0.382;2023-06-24T06:07:13;20.80;99.90
30037;DHT22;36325;51.512;-0.382;2023-06-24T06:09:41;19.00;99.90
30037;DHT22;36325;51.512;-0.382;2023-06-24T06:12:08;19.00;99.90
30037;DHT22;36325;51.512;-0.382;2023-06-24T06:17:03;19.10;99.90
30037;DHT22;36325;51.512;-0.382;2023-06-24T06:19:31;19.20;99.90
30037;DHT22;36325;51.512;-0.382;2023-06-24T06:21:58;19.20;99.90
30037;DHT22;36325;51.512;-0.382;2023-06-24T06:24:25;19.40;99.90
30037;DHT22;36325;51.512;-0.382;2023-06-24T06:26:52;19.50;99.90
30037;DHT22;36325;51.512;-0.382;2023-06-24T06:29:21;19.60;99.90
30037;DHT22;36325;51.512;-0.382;2023-06-24T06:31:48;18.60;99.90
30037;DHT22;36325;51.512;-0.382;2023-06-24T06:34:15;19.60;99.90
30037;DHT22;36325;51.512;-0.382;2023-06-24T06:36:42;19.50;99.90
30037;DHT22;36325;51.512;-0.382;2023-06-24T06:41:37;19.80;99.90
30037;DHT22;36325;51.512;-0.382;2023-06-24T06:44:08;19.80;99.90
30037;DHT22;36325;51.512;-0.382;2023-06-24T06:46:35;19.90;99.90
30037;DHT22;36325;51.512;-0.382;2023-06-24T06:49:02;20.00;99.90
30037;DHT22;36325;51.512;-0.382;2023-06-24T06:51:29;20.00;99.90
30037;DHT22;36325;51.512;-0.382;2023-06-24T06:53:56;20.10;99.90
30037;DHT22;36325;51.512;-0.382;2023-06-24T06:56:25;22.50;99.90
30037;DHT22;36325;51.512;-0.382;2023-06-24T06:58:52;20.30;99.90
30037;DHT22;36325;51.512;-0.382;2023-06-24T07:01:20;20.30;99.90
30037;DHT22;36325;51.512;-0.382;2023-06-24T07:03:49;20.40;99.90
30037;DHT22;36325;51.512;-0.382;2023-06-24T07:06:19;20.60;99.90
30037;DHT22;36325;51.512;-0.382;2023-06-24T07:08:47;20.60;99.90
30037;DHT22;36325;51.512;-0.382;2023-06-24T07:11:14;20.70;99.90
30037;DHT22;36325;51.512;-0.382;2023-06-24T07:13:42;20.70;99.90
30037;DHT22;36325;51.512;-0.382;2023-06-24T07:23:32;21.00;99.90
30037;DHT22;36325;51.512;-0.382;2023-06-24T07:25:59;21.10;99.90
30037;DHT22;36325;51.512;-0.382;2023-06-24T07:31:00;21.20;99.90
30037;DHT22;36325;51.512;-0.382;2023-06-24T07:33:28;21.20;99.90
30037;DHT22;36325;51.512;-0.382;2023-06-24T07:36:01;21.30;99.90
30037;DHT22;36325;51.512;-0.382;2023-06-24T07:38:29;21.50;99.90
30037;DHT22;36325;51.512;-0.382;2023-06-24T07:40:56;21.50;99.90
30037;DHT22;36325;51.512;-0.382;2023-06-24T07:43:24;21.60;99.90
30037;DHT22;36325;51.512;-0.382;2023-06-24T07:45:51;21.60;99.90
30037;DHT22;36325;51.512;-0.382;2023-06-24T07:48:19;21.70;99.90
30037;DHT22;36325;51.512;-0.382;2023-06-24T07:50:46;22.00;99.90
30037;DHT22;36325;51.512;-0.382;2023-06-24T07:53:14;22.00;99.90
30037;DHT22;36325;51.512;-0.382;2023-06-24T07:55:41;22.10;99.90
30037;DHT22;36325;51.512;-0.382;2023-06-24T07:58:08;22.30;99.90
30037;DHT22;36325;51.512;-0.382;2023-06-24T08:00:36;22.20;99.90
30037;DHT22;36325;51.512;-0.382;2023-06-24T08:03:05;22.20;99.90
30037;DHT22;36325;51.512;-0.382;2023-06-24T08:05:32;22.20;99.90
30037;DHT22;36325;51.512;-0.382;2023-06-24T08:08:00;22.20;99.90
30037;DHT22;36325;51.512;-0.382;2023-06-24T08:10:27;22.30;99.90
30037;DHT22;36325;51.512;-0.382;2023-06-24T08:12:55;22.40;99.90
30037;DHT22;36325;51.512;-0.382;2023-06-24T08:15:22;22.50;99.90
30037;DHT22;36325;51.512;-0.382;2023-06-24T08:17:53;22.50;99.90
30037;DHT22;36325;51.512;-0.382;2023-06-24T08:20:21;19.90;99.90
30037;DHT22;36325;51.512;-0.382;2023-06-24T08:22:49;23.30;99.90
30037;DHT22;36325;51.512;-0.382;2023-06-24T08:25:16;23.20;99.90
30037;DHT22;36325;51.512;-0.382;2023-06-24T08:27:44;23.40;99.90
30037;DHT22;36325;51.512;-0.382;2023-06-24T08:30:14;23.40;99.90
30037;DHT22;36325;51.512;-0.382;2023-06-24T08:32:45;23.60;99.90
30037;DHT22;36325;51.512;-0.382;2023-06-24T08:35:12;23.90;99.90
30037;DHT22;36325;51.512;-0.382;2023-06-24T08:37:39;24.30;99.90
30037;DHT22;36325;51.512;-0.382;2023-06-24T08:40:07;24.80;99.90
30037;DHT22;36325;51.512;-0.382;2023-06-24T08:42:35;24.70;99.90
30037;DHT22;36325;51.512;-0.382;2023-06-24T08:45:03;23.00;99.90
30037;DHT22;36325;51.512;-0.382;2023-06-24T08:47:30;24.90;99.90
30037;DHT22;36325;51.512;-0.382;2023-06-24T08:50:13;24.90;99.90
30037;DHT22;36325;51.512;-0.382;2023-06-24T08:52:52;25.00;99.90
30037;DHT22;36325;51.512;-0.382;2023-06-24T08:55:22;24.60;99.90
30037;DHT22;36325;51.512;-0.382;2023-06-24T08:57:50;25.10;99.90
30037;DHT22;36325;51.512;-0.382;2023-06-24T09:02:45;25.30;99.90
30037;DHT22;36325;51.512;-0.382;2023-06-24T09:05:13;25.40;99.90
30037;DHT22;36325;51.512;-0.382;2023-06-24T09:07:40;25.60;99.90
30037;DHT22;36325;51.512;-0.382;2023-06-24T09:10:07;26.00;99.90
30037;DHT22;36325;51.512;-0.382;2023-06-24T09:12:35;26.00;99.90
30037;DHT22;36325;51.512;-0.382;2023-06-24T09:17:30;26.40;99.90
30037;DHT22;36325;51.512;-0.382;2023-06-24T09:20:05;26.70;99.90
30037;DHT22;36325;51.512;-0.382;2023-06-24T09:22:32;26.70;99.90
30037;DHT22;36325;51.512;-0.382;2023-06-24T09:25:01;26.80;99.90
30037;DHT22;36325;51.512;-0.382;2023-06-24T09:27:31;27.20;99.90
30037;DHT22;36325;51.512;-0.382;2023-06-24T09:29:59;27.30;99.90
30037;DHT22;36325;51.512;-0.382;2023-06-24T09:32:29;27.20;99.90
30037;DHT22;36325;51.512;-0.382;2023-06-24T09:37:29;27.30;99.90
30037;DHT22;36325;51.512;-0.382;2023-06-24T09:39:58;27.40;99.90
30037;DHT22;36325;51.512;-0.382;2023-06-24T09:42:26;27.70;99.90
30037;DHT22;36325;51.512;-0.382;2023-06-24T09:44:56;28.30;99.90
30037;DHT22;36325;51.512;-0.382;2023-06-24T09:47:24;28.70;99.90
30037;DHT22;36325;51.512;-0.382;2023-06-24T09:49:54;29.10;99.90
30037;DHT22;36325;51.512;-0.382;2023-06-24T09:52:22;29.30;99.90
30037;DHT22;36325;51.512;-0.382;2023-06-24T09:54:51;29.80;99.90
30037;DHT22;36325;51.512;-0.382;2023-06-24T09:57:22;29.80;99.90
30037;DHT22;36325;51.512;-0.382;2023-06-24T09:59:51;29.90;99.90
30037;DHT22;36325;51.512;-0.382;2023-06-24T10:02:19;29.80;99.90
30037;DHT22;36325;51.512;-0.382;2023-06-24T10:04:48;29.60;99.90
30037;DHT22;36325;51.512;-0.382;2023-06-24T10:07:15;29.30;99.90
30037;DHT22;36325;51.512;-0.382;2023-06-24T10:09:44;29.60;99.90
30037;DHT22;36325;51.512;-0.382;2023-06-24T10:12:11;30.20;99.90
30037;DHT22;36325;51.512;-0.382;2023-06-24T10:14:38;30.70;99.90
30037;DHT22;36325;51.512;-0.382;2023-06-24T10:17:06;30.70;99.90
30037;DHT22;36325;51.512;-0.382;2023-06-24T10:19:38;30.40;99.90
30037;DHT22;36325;51.512;-0.382;2023-06-24T10:22:09;30.10;99.90
30037;DHT22;36325;51.512;-0.382;2023-06-24T10:24:40;29.80;99.90
30037;DHT22;36325;51.512;-0.382;2023-06-24T10:27:20;29.80;99.90
30037;DHT22;36325;51.512;-0.382;2023-06-24T10:29:54;29.80;99.90
30037;DHT22;36325;51.512;-0.382;2023-06-24T10:32:25;30.10;99.90
30037;DHT22;36325;51.512;-0.382;2023-06-24T10:34:56;30.70;99.90
30037;DHT22;36325;51.512;-0.382;2023-06-24T10:37:25;31.10;99.90
30037;DHT22;36325;51.512;-0.382;2023-06-24T10:39:59;31.40;99.90
30037;DHT22;36325;51.512;-0.382;2023-06-24T10:42:28;31.30;99.90
30037;DHT22;36325;51.512;-0.382;2023-06-24T10:47:46;30.40;99.90
30037;DHT22;36325;51.512;-0.382;2023-06-24T10:50:16;30.10;99.90
30037;DHT22;36325;51.512;-0.382;2023-06-24T10:52:46;29.80;99.90
30037;DHT22;36325;51.512;-0.382;2023-06-24T10:55:15;29.60;99.90
30037;DHT22;36325;51.512;-0.382;2023-06-24T10:57:43;29.40;99.90
30037;DHT22;36325;51.512;-0.382;2023-06-24T11:00:14;29.30;99.90
30037;DHT22;36325;51.512;-0.382;2023-06-24T11:02:43;32.70;99.90
30037;DHT22;36325;51.512;-0.382;2023-06-24T11:05:11;28.80;99.90
30037;DHT22;36325;51.512;-0.382;2023-06-24T11:07:39;28.90;99.90
30037;DHT22;36325;51.512;-0.382;2023-06-24T11:10:07;29.00;99.90
30037;DHT22;36325;51.512;-0.382;2023-06-24T11:12:41;29.30;99.90
30037;DHT22;36325;51.512;-0.382;2023-06-24T11:15:10;29.30;99.90
30037;DHT22;36325;51.512;-0.382;2023-06-24T11:17:38;29.10;99.90
30037;DHT22;36325;51.512;-0.382;2023-06-24T11:20:12;29.00;99.90
30037;DHT22;36325;51.512;-0.382;2023-06-24T11:22:41;28.90;99.90
30037;DHT22;36325;51.512;-0.382;2023-06-24T11:25:29;28.90;99.90
30037;DHT22;36325;51.512;-0.382;2023-06-24T11:27:57;28.80;99.90
30037;DHT22;36325;51.512;-0.382;2023-06-24T11:30:24;28.70;99.90
30037;DHT22;36325;51.512;-0.382;2023-06-24T11:32:52;29.10;99.90
30037;DHT22;36325;51.512;-0.382;2023-06-24T11:35:19;29.90;99.90
30037;DHT22;36325;51.512;-0.382;2023-06-24T11:37:47;31.10;99.90
30037;DHT22;36325;51.512;-0.382;2023-06-24T11:40:17;32.00;99.90
30037;DHT22;36325;51.512;-0.382;2023-06-24T11:42:46;32.00;99.90
30037;DHT22;36325;51.512;-0.382;2023-06-24T11:45:20;35.90;99.90
30037;DHT22;36325;51.512;-0.382;2023-06-24T11:47:48;32.30;99.90
30037;DHT22;36325;51.512;-0.382;2023-06-24T11:50:25;32.30;99.90
30037;DHT22;36325;51.512;-0.382;2023-06-24T11:52:53;32.20;99.90
30037;DHT22;36325;51.512;-0.382;2023-06-24T11:55:22;32.50;99.90
30037;DHT22;36325;51.512;-0.382;2023-06-24T11:57:58;32.90;99.90
30037;DHT22;36325;51.512;-0.382;2023-06-24T12:00:27;34.40;99.90
30037;DHT22;36325;51.512;-0.382;2023-06-24T12:02:56;35.40;99.90
30037;DHT22;36325;51.512;-0.382;2023-06-24T12:05:27;35.90;99.90
30037;DHT22;36325;51.512;-0.382;2023-06-24T12:10:27;35.80;99.90
30037;DHT22;36325;51.512;-0.382;2023-06-24T12:13:00;34.40;99.90
30037;DHT22;36325;51.512;-0.382;2023-06-24T12:15:28;34.30;99.90
30037;DHT22;36325;51.512;-0.382;2023-06-24T12:17:55;34.00;99.90
30037;DHT22;36325;51.512;-0.382;2023-06-24T12:20:24;34.40;99.90
30037;DHT22;36325;51.512;-0.382;2023-06-24T12:25:23;36.40;99.90
30037;DHT22;36325;51.512;-0.382;2023-06-24T12:27:50;36.80;99.90
30037;DHT22;36325;51.512;-0.382;2023-06-24T12:30:17;36.90;99.90
30037;DHT22;36325;51.512;-0.382;2023-06-24T12:32:45;36.30;99.90
30037;DHT22;36325;51.512;-0.382;2023-06-24T12:35:12;35.70;99.90
30037;DHT22;36325;51.512;-0.382;2023-06-24T12:37:40;34.90;99.90
30037;DHT22;36325;51.512;-0.382;2023-06-24T12:40:07;33.60;99.90
30037;DHT22;36325;51.512;-0.382;2023-06-24T12:42:35;33.60;99.90
30037;DHT22;36325;51.512;-0.382;2023-06-24T12:45:02;33.30;99.90
30037;DHT22;36325;51.512;-0.382;2023-06-24T12:47:32;33.50;99.90
30037;DHT22;36325;51.512;-0.382;2023-06-24T12:49:59;33.70;99.90
30037;DHT22;36325;51.512;-0.382;2023-06-24T12:52:27;34.20;99.90
30037;DHT22;36325;51.512;-0.382;2023-06-24T12:54:54;34.40;99.90
30037;DHT22;36325;51.512;-0.382;2023-06-24T12:57:21;34.10;99.90
30037;DHT22;36325;51.512;-0.382;2023-06-24T12:59:48;33.80;99.90
30037;DHT22;36325;51.512;-0.382;2023-06-24T13:02:15;33.50;99.90
30037;DHT22;36325;51.512;-0.382;2023-06-24T13:04:42;33.40;99.90
30037;DHT22;36325;51.512;-0.382;2023-06-24T13:07:10;33.40;99.90
30037;DHT22;36325;51.512;-0.382;2023-06-24T13:09:37;33.50;99.90
30037;DHT22;36325;51.512;-0.382;2023-06-24T13:12:04;33.70;99.90
30037;DHT22;36325;51.512;-0.382;2023-06-24T13:14:31;34.10;99.90
30037;DHT22;36325;51.512;-0.382;2023-06-24T13:16:58;34.50;99.90
30037;DHT22;36325;51.512;-0.382;2023-06-24T13:19:26;34.40;99.90
30037;DHT22;36325;51.512;-0.382;2023-06-24T13:21:53;34.00;99.90
30037;DHT22;36325;51.512;-0.382;2023-06-24T13:24:20;36.00;99.90
30037;DHT22;36325;51.512;-0.382;2023-06-24T13:26:47;33.30;99.90
30037;DHT22;36325;51.512;-0.382;2023-06-24T13:29:14;33.30;99.90
30037;DHT22;36325;51.512;-0.382;2023-06-24T13:31:41;33.60;99.90
30037;DHT22;36325;51.512;-0.382;2023-06-24T13:34:09;33.70;99.90
30037;DHT22;36325;51.512;-0.382;2023-06-24T13:36:37;33.60;99.90
30037;DHT22;36325;51.512;-0.382;2023-06-24T13:39:06;33.70;99.90
30037;DHT22;36325;51.512;-0.382;2023-06-24T13:44:02;34.60;99.90
30037;DHT22;36325;51.512;-0.382;2023-06-24T13:46:31;34.90;99.90
30037;DHT22;36325;51.512;-0.382;2023-06-24T13:49:02;34.90;99.90
30037;DHT22;36325;51.512;-0.382;2023-06-24T13:51:32;35.50;99.90
30037;DHT22;36325;51.512;-0.382;2023-06-24T13:53:59;35.50;99.90
30037;DHT22;36325;51.512;-0.382;2023-06-24T13:56:26;35.30;99.90
30037;DHT22;36325;51.512;-0.382;2023-06-24T13:58:54;35.20;99.90
30037;DHT22;36325;51.512;-0.382;2023-06-24T14:01:22;34.90;99.90
30037;DHT22;36325;51.512;-0.382;2023-06-24T14:03:50;35.20;99.90
30037;DHT22;36325;51.512;-0.382;2023-06-24T14:06:20;35.00;99.90
30037;DHT22;36325;51.512;-0.382;2023-06-24T14:08:49;34.60;99.90
30037;DHT22;36325;51.512;-0.382;2023-06-24T14:11:17;34.60;99.90
30037;DHT22;36325;51.512;-0.382;2023-06-24T14:13:44;34.20;99.90
30037;DHT22;36325;51.512;-0.382;2023-06-24T14:16:12;31.90;99.90
30037;DHT22;36325;51.512;-0.382;2023-06-24T14:18:39;34.10;99.90
30037;DHT22;36325;51.512;-0.382;2023-06-24T14:21:07;34.40;99.90
30037;DHT22;36325;51.512;-0.382;2023-06-24T14:23:34;34.40;99.90
30037;DHT22;36325;51.512;-0.382;2023-06-24T14:26:02;34.40;99.90
30037;DHT22;36325;51.512;-0.382;2023-06-24T14:28:29;34.40;99.90
30037;DHT22;36325;51.512;-0.382;2023-06-24T14:30:57;34.80;99.90
30037;DHT22;36325;51.512;-0.382;2023-06-24T14:35:51;36.00;99.80
30037;DHT22;36325;51.512;-0.382;2023-06-24T14:38:19;36.80;99.10
30037;DHT22;36325;51.512;-0.382;2023-06-24T14:40:46;37.80;98.20
30037;DHT22;36325;51.512;-0.382;2023-06-24T14:43:13;38.60;97.50
30037;DHT22;36325;51.512;-0.382;2023-06-24T14:45:41;38.80;96.90
30037;DHT22;36325;51.512;-0.382;2023-06-24T14:48:08;38.70;96.70
30037;DHT22;36325;51.512;-0.382;2023-06-24T14:50:35;38.20;96.50
30037;DHT22;36325;51.512;-0.382;2023-06-24T14:53:03;38.20;96.70
30037;DHT22;36325;51.512;-0.382;2023-06-24T14:55:30;38.30;96.40
30037;DHT22;36325;51.512;-0.382;2023-06-24T14:57:59;37.90;96.00
30037;DHT22;36325;51.512;-0.382;2023-06-24T15:00:26;36.70;96.10
30037;DHT22;36325;51.512;-0.382;2023-06-24T15:02:53;36.70;96.60
30037;DHT22;36325;51.512;-0.382;2023-06-24T15:05:20;36.00;97.00
30037;DHT22;36325;51.512;-0.382;2023-06-24T15:07:47;35.40;97.70
30037;DHT22;36325;51.512;-0.382;2023-06-24T15:10:15;34.90;98.30
30037;DHT22;36325;51.512;-0.382;2023-06-24T15:15:10;34.10;98.90
30037;DHT22;36325;51.512;-0.382;2023-06-24T15:17:37;34.00;99.60
30037;DHT22;36325;51.512;-0.382;2023-06-24T15:20:08;33.80;99.90
30037;DHT22;36325;51.512;-0.382;2023-06-24T15:22:36;33.70;99.90
30037;DHT22;36325;51.512;-0.382;2023-06-24T15:25:04;33.60;99.90
30037;DHT22;36325;51.512;-0.382;2023-06-24T15:27:31;33.60;99.90
30037;DHT22;36325;51.512;-0.382;2023-06-24T15:29:59;33.70;99.90
30037;DHT22;36325;51.512;-0.382;2023-06-24T15:32:26;34.00;99.90
30037;DHT22;36325;51.512;-0.382;2023-06-24T15:37:21;34.20;99.90
30037;DHT22;36325;51.512;-0.382;2023-06-24T15:39:48;34.20;99.90
30037;DHT22;36325;51.512;-0.382;2023-06-24T15:42:16;35.00;99.80
30037;DHT22;36325;51.512;-0.382;2023-06-24T15:44:43;35.50;99.40
30037;DHT22;36325;51.512;-0.382;2023-06-24T15:47:10;36.30;98.70
30037;DHT22;36325;51.512;-0.382;2023-06-24T15:49:38;37.10;97.90
30037;DHT22;36325;51.512;-0.382;2023-06-24T15:52:05;36.90;97.60
30037;DHT22;36325;51.512;-0.382;2023-06-24T15:54:32;36.30;97.50
30037;DHT22;36325;51.512;-0.382;2023-06-24T15:56:59;35.50;97.60
30037;DHT22;36325;51.512;-0.382;2023-06-24T15:59:27;35.40;97.80
30037;DHT22;36325;51.512;-0.382;2023-06-24T16:04:21;35.50;97.60
30037;DHT22;36325;51.512;-0.382;2023-06-24T16:09:16;35.60;97.30
30037;DHT22;36325;51.512;-0.382;2023-06-24T16:11:44;35.60;97.60
30037;DHT22;36325;51.512;-0.382;2023-06-24T16:14:11;35.20;97.90
30037;DHT22;36325;51.512;-0.382;2023-06-24T16:21:35;33.50;98.70
30037;DHT22;36325;51.512;-0.382;2023-06-24T16:24:02;32.50;99.90
30037;DHT22;36325;51.512;-0.382;2023-06-24T16:26:30;32.50;99.90
30037;DHT22;36325;51.512;-0.382;2023-06-24T16:29:09;32.00;99.90
30037;DHT22;36325;51.512;-0.382;2023-06-24T16:31:36;31.60;99.90
30037;DHT22;36325;51.512;-0.382;2023-06-24T16:34:04;31.10;99.90
30037;DHT22;36325;51.512;-0.382;2023-06-24T16:36:31;31.10;99.90
30037;DHT22;36325;51.512;-0.382;2023-06-24T16:38:58;31.00;99.90
30037;DHT22;36325;51.512;-0.382;2023-06-24T16:41:25;31.00;99.90
30037;DHT22;36325;51.512;-0.382;2023-06-24T16:43:52;31.00;99.90
30037;DHT22;36325;51.512;-0.382;2023-06-24T16:46:19;31.10;99.90
30037;DHT22;36325;51.512;-0.382;2023-06-24T16:48:47;31.10;99.90